Arlington, Washington
Current Conditions -  °F | °C
As of 5:55 AM on Monday 20 Oct 2014 (Local Time) from KAWO Reporting Station
Overcast Overcast  
Wind Chill: 59°   Ceiling: 3400
Heat Index: 59°   Visibility: 10mi
Dew Point: 54°   Wind: 8mph
Humidity: 82%   Direction: 140°SE
Pressure: 29.7"   Gusts: NA
Location:  48.2°N, 122.13°W
Report Text: KAWO 201255Z AUTO 14007KT 10SM FEW026 OVC034 15/12 A2970 RMK AO1 P0001
Loading
Personal Weather Stations






























Interactive Weather Map
Tropical Storm Tracking
New forecast layout! Learn more

10-Day Weather Forecast

Advertisements
Track Severe Weather on mobile